Flight Track Log - Related Links

Times and Time Zones

All times are in EDT time to prevent confusion due to time zone crossing. See the SKW5550 flight status page for this flight to view local times or setup timezone preferences in your user account.

Time Position Orientation Groundspeed Altitude Reporting Facility
EDT Latitude Longitude Course Direction KTS MPH feet Rate Location/Type
Wed 09:02:57 AM 44.5467 -108.9850 142° Southeast 175 201 6,400  Level Salt Lake Center
Wed 09:03:00 AM 43.5137 -108.3215 156° South  Level FlightAware Approximate
Wed 09:03:58 AM 44.6028 -108.9764 North 206 237 8,300  Level Salt Lake Center
Wed 09:04:00 AM 43.4258 -108.2569 142° Southeast  Level FlightAware Approximate
Wed 09:04:59 AM 44.6289 -108.9050 63° Northeast 229 264 10,200  Level Salt Lake Center
Wed 09:05:00 AM 43.3472 -108.1710 142° Southeast  Level FlightAware Approximate
Wed 09:06:00 AM 43.2686 -108.0854 142° Southeast  Level FlightAware Approximate
Wed 09:06:00 AM 44.5589 -108.8542 153° Southeast 275 316 12,000  Level Salt Lake Center
Wed 09:07:00 AM 43.1875 -108.0042 144° Southeast  Level FlightAware Approximate
Wed 09:07:00 AM 44.4711 -108.7797 149° Southeast 301 346 14,100  Level Salt Lake Center
Wed 09:08:00 AM 43.1083 -107.9199 142° Southeast  Level FlightAware Approximate
Wed 09:08:01 AM 44.3889 -108.7083 148° Southeast 332 382 15,300  Level Salt Lake Center
Wed 09:09:02 AM 44.3022 -108.6306 147° Southeast 358 412 16,700 1,525 Climbing Salt Lake Center
Wed 09:10:03 AM 44.2144 -108.5544 148° Southeast 370 426 18,400 1,672 Climbing Salt Lake Center
Wed 09:11:04 AM 44.1275 -108.4778 148° Southeast 371 427 20,100 1,279 Climbing Salt Lake Center
Wed 09:12:05 AM 44.0381 -108.3994 148° Southeast 377 434 21,000 885 Climbing Salt Lake Center
Wed 09:13:06 AM 43.9447 -108.3194 148° Southeast 391 450 21,900 934 Climbing Salt Lake Center
Wed 09:14:07 AM 43.8486 -108.2353 148° Southeast 406 467 22,900 942 Climbing Salt Lake Center
Wed 09:15:07 AM 43.7514 -108.1494 147° Southeast 414 476 23,800 893 Climbing Salt Lake Center
Wed 09:16:08 AM 43.6522 -108.0633 148° Southeast 421 484 24,700 885 Climbing Salt Lake Center
Wed 09:17:09 AM 43.5517 -107.9769 148° Southeast 427 491 25,600 934 Climbing Salt Lake Center
Wed 09:18:10 AM 43.4297 -107.8725 148° Southeast 432 497 26,600 787 Climbing Salt Lake Center
Wed 09:19:11 AM 43.3261 -107.7822 148° Southeast 440 506 27,200 689 Climbing Salt Lake Center
Wed 09:20:12 AM 43.2208 -107.6947 149° Southeast 442 509 28,000 689 Climbing Salt Lake Center
Wed 09:21:13 AM 43.1147 -107.6053 148° Southeast 448 516 28,600 541 Climbing Salt Lake Center
Wed 09:22:14 AM 43.0081 -107.5142 148° Southeast 453 521 29,100 443 Climbing Salt Lake Center
Wed 09:23:15 AM 42.9061 -107.4281 148° Southeast 460 529 29,500 492 Climbing Salt Lake Center
Wed 09:24:16 AM 42.7836 -107.3253 148° Southeast 463 533 30,100 541 Climbing Salt Lake Center
Wed 09:25:17 AM 42.6767 -107.2353 148° Southeast 468 539 30,600 443 Climbing Salt Lake Center
Wed 09:26:18 AM 42.5522 -107.1314 148° Southeast 469 540 31,000 197 Climbing Salt Lake Center
Wed 09:27:19 AM 42.4422 -107.0414 149° Southeast 479 551 31,000  Level Salt Lake Center
Wed 09:28:20 AM 42.3375 -106.9442 146° Southeast 478 550 31,000  Level Denver Center
Wed 09:29:21 AM 42.2164 -106.8272 144° Southeast 479 551 31,000  Level Denver Center
Wed 09:30:22 AM 42.1106 -106.7281 145° Southeast 482 555 31,000  Level Denver Center
Wed 09:31:24 AM 42.0050 -106.6281 145° Southeast 483 556 31,000  Level Denver Center
Wed 09:32:25 AM 41.8831 -106.5128 145° Southeast 480 552 31,000 -344 Level Denver Center
Wed 09:33:26 AM 41.7725 -106.4097 145° Southeast 473 544 30,300 -836 Descending Denver Center
Wed 09:34:27 AM 41.6661 -106.3108 145° Southeast 484 557 29,300 -976 Descending Denver Center
Wed 09:35:29 AM 41.5589 -106.2106 145° Southeast 489 563 28,300 -1,024 Descending Denver Center
Wed 09:36:30 AM 41.4367 -106.0975 145° Southeast 482 555 27,200 -984 Descending Denver Center
Wed 09:37:31 AM 41.3319 -106.0008 145° Southeast 479 551 26,300 -1,024 Descending Denver Center
Wed 09:38:33 AM 41.2111 -105.8889 145° Southeast 475 547 25,100 -634 Descending Denver Center
Wed 09:39:34 AM 41.1100 -105.7967 145° Southeast 466 536 25,000 -49 Descending Denver Center
Wed 09:40:35 AM 41.0075 -105.7033 145° Southeast 460 529 25,000  Level Denver Center
Wed 09:41:37 AM 40.9022 -105.6078 146° Southeast 460 529 25,000 -528 Level Denver Center
Wed 09:42:40 AM 40.7967 -105.5122 146° Southeast 459 528 23,900 -1,230 Descending Denver Center
Wed 09:43:39 AM 40.6742 -105.4011 145° Southeast 447 514 22,500 -1,240 Descending Denver Center
Wed 09:44:41 AM 40.5856 -105.3200 145° Southeast 395 455 21,400 -976 Descending Denver Center
Wed 09:45:42 AM 40.5000 -105.2442 146° Southeast 374 430 20,500 -1,171 Descending Denver Center
Wed 09:46:44 AM 40.4119 -105.1728 148° Southeast 369 425 19,000 -1,659 Descending Denver Center
Wed 09:47:45 AM 40.3275 -105.1044 148° Southeast 358 412 17,100 -1,967 Descending Denver Center
Wed 09:48:46 AM 40.2375 -105.0336 149° Southeast 350 403 15,000 -1,756 Descending Denver Center
Wed 09:49:48 AM 40.1589 -104.9706 148° Southeast 331 381 13,500 -976 Descending Denver Center
Wed 09:50:49 AM 40.0797 -104.9069 148° Southeast 333 383 13,000 -244 Descending Denver Center
Wed 09:51:51 AM 40.0053 -104.8469 148° Southeast 290 334 13,000 -341 Level Denver Center
Wed 09:52:52 AM 39.9331 -104.8061 157° South 291 335 12,300 -829 Descending Denver Center
Wed 09:53:54 AM 39.8567 -104.8075 181° South 279 321 11,300 -683 Descending Denver Center
Wed 09:54:55 AM 39.7797 -104.8092 181° South 260 299 10,900 -780 Descending Denver Center
Wed 09:55:57 AM 39.7133 -104.8000 174° South 242 278 9,700 -1,171 Descending Denver Center
Wed 09:56:58 AM 39.7042 -104.7106 98° East 244 281 8,500 -1,171 Descending Denver Center
Wed 09:58:00 AM 39.7239 -104.6442 69° East 210 242 7,300 -1,161 Descending Denver Center

Login

Don't have an account? Register now (free) for customized features, flight alerts, and more!